Página principal
METAR-TAF:

METAR-TAF

Aeroportos :

Lankaran, Azerbaijão

latitude: 38-44-47N, longitude: 048-49-04E, altura: 9 m

Observação actual do tempo

O boletim foi feito há 41 minutos, às 02:00 UTC
Vento 2 kt com direcção variável
Temperatura 16°C
Humidade 88%
Pressão 1014 hPa
Visibilidade: 9000 m
Nuvens dispersasa uma altura de 10000 ft

METAR: UBBL 230200Z VRB02KT 9000 SCT100 16/14 Q1014 R33/CLRD// NOSIG RMK MT OP

Hora: 06:41 (02:41 UTC)

Previsão

O boletim foi feito há 3 horas e 11 minutos, às 23:30 UTC
Previsão válida de 23 às 00 UTC a 23 às 24 UTC
Vento 6 kt de sudeste
Visibilidade 10 km ou mais
Nuvens dispersasa uma altura de 10000 ft
Temporariamente
de 23 às 00 UTC a 23 às 04 UTC
Visibilidade: 4000 m
Nuvens dispersasa uma altura de 600 ft
neblina
Temporariamente
de 23 às 04 UTC a 23 às 15 UTC
Vento 12 kt de sul
Nuvens dispersasa uma altura de 3000 ft

TAF: UBBL 222330Z 2300/2324 14006KT 9999 SCT100 TX24/2310Z TN14/2302Z TEMPO 2300/2304 4000 BR SCT006 TEMPO 2304/2315 18012KT SCT030

Observações e previsões do tempo de mais de 4000 aeroportos (mensagens METAR e TAF).

As estações disponíveis são os pontos amarelos e vermelhos sobre o mapa.

Mova o rato sobre o mapa para ver o nome da estação.

Depois clique no ponto para visualizar as observações e previsões meteorológicas.

Para alterar o mapa : clique nos botões verdes com uma cruz preta para aumentar o zoom; no botão verde com uma pitada de zoom; ou nas setas verdes para mapas adjacentes.


METAR-TAF: